Time;durP1;ratioP1;P1;durP2;ratioP2;P2;SDS_P1;SDS_P2;PMS_P1;PMS_P2;Temp;Humidity;BMP_temperature;BMP_pressure;BME280_temperature;BME280_humidity;BME280_pressure;Samples;Min_cycle;Max_cycle;Signal;HPM_P1;HPM_P2
2022/01/10 00:00:55;;;;;;;2.10;2.00;;;1.00;99.90;;;;;;5257876;28;20360;-74
2022/01/10 00:03:33;;;;;;;1.00;1.00;;;0.90;99.90;;;;;;5278478;27;20028;-74
2022/01/10 00:06:04;;;;;;;2.15;2.05;;;0.90;99.90;;;;;;5252263;27;20460;-74
2022/01/10 00:08:40;;;;;;;1.30;1.30;;;0.90;99.90;;;;;;5262548;27;20107;-74
2022/01/10 00:11:11;;;;;;;0.98;0.98;;;0.90;99.90;;;;;;5261147;28;20279;-73
2022/01/10 00:13:46;;;;;;;1.42;1.42;;;1.00;99.90;;;;;;5262233;28;20077;-72
2022/01/10 00:16:20;;;;;;;2.97;2.88;;;1.00;99.90;;;;;;5260273;28;20031;-74
2022/01/10 00:18:50;;;;;;;1.52;1.52;;;1.00;99.90;;;;;;5260232;28;20107;-74
2022/01/10 00:21:24;;;;;;;0.85;0.85;;;1.00;99.90;;;;;;5260935;28;20024;-74
2022/01/10 00:23:55;;;;;;;1.88;1.50;;;1.00;99.90;;;;;;5259559;28;20448;-73
2022/01/10 00:26:26;;;;;;;0.77;0.77;;;1.20;99.90;;;;;;5260942;28;20040;-74
2022/01/10 00:28:59;;;;;;;0.40;0.40;;;1.80;99.90;;;;;;5255907;28;20510;-73
2022/01/10 00:31:35;;;;;;;0.52;0.52;;;2.40;99.90;;;;;;5259614;28;20589;-73
2022/01/10 00:34:06;;;;;;;1.00;1.00;;;2.90;99.90;;;;;;5294432;27;20027;-73
2022/01/10 00:36:37;;;;;;;0.50;0.50;;;3.20;99.90;;;;;;5260883;28;20032;-74
2022/01/10 00:39:16;;;;;;;0.82;0.82;;;3.40;99.90;;;;;;5244913;28;20019;-73
2022/01/10 00:41:55;;;;;;;0.60;0.60;;;3.40;99.90;;;;;;5243585;28;20035;-72
2022/01/10 00:44:31;;;;;;;0.50;0.50;;;3.50;99.90;;;;;;5256516;28;20025;-72
2022/01/10 00:47:03;;;;;;;0.50;0.50;;;3.60;99.90;;;;;;5242434;28;20032;-72
2022/01/10 00:49:36;;;;;;;0.60;0.60;;;3.60;99.90;;;;;;5221727;28;20066;-73
2022/01/10 00:52:09;;;;;;;0.80;0.80;;;3.60;99.90;;;;;;5239308;28;20066;-72
2022/01/10 00:54:40;;;;;;;0.40;0.40;;;3.60;99.90;;;;;;5239503;28;20088;-73
2022/01/10 00:57:11;;;;;;;0.40;0.40;;;3.60;99.90;;;;;;5218202;28;20064;-72
2022/01/10 00:59:45;;;;;;;0.50;0.50;;;3.70;99.90;;;;;;5238358;28;20082;-74
2022/01/10 01:02:20;;;;;;;0.50;0.50;;;3.70;99.90;;;;;;5238000;28;20097;-73
2022/01/10 01:04:52;;;;;;;0.50;0.50;;;3.70;99.90;;;;;;5238347;28;20119;-73
2022/01/10 01:07:25;;;;;;;0.30;0.30;;;3.70;99.90;;;;;;5260424;28;20032;-73
2022/01/10 01:10:30;;;;;;;0.77;0.77;;;3.80;99.90;;;;;;5260553;28;20498;-73
2022/01/10 01:13:09;;;;;;;0.68;0.68;;;3.80;99.90;;;;;;5259034;28;20146;-72
2022/01/10 01:16:08;;;;;;;0.63;0.63;;;3.80;99.90;;;;;;5261083;28;20035;-73
2022/01/10 01:24:14;;;;;;;1.20;1.20;;;3.80;99.90;;;;;;5259748;28;20060;-73
2022/01/10 01:26:54;;;;;;;0.40;0.40;;;3.80;99.90;;;;;;5254724;28;20036;-73
2022/01/10 01:29:28;;;;;;;0.50;0.50;;;3.80;99.90;;;;;;5252761;28;20067;-73
2022/01/10 01:32:04;;;;;;;1.08;1.08;;;3.80;99.90;;;;;;5277508;28;20307;-73
2022/01/10 01:34:37;;;;;;;0.50;0.50;;;3.80;99.90;;;;;;5242602;28;20044;-72
2022/01/10 01:37:11;;;;;;;0.70;0.70;;;3.80;99.90;;;;;;5257258;28;20024;-72
2022/01/10 01:39:42;;;;;;;0.55;0.55;;;3.80;99.90;;;;;;5264593;28;20081;-74
2022/01/10 01:45:04;;;;;;;0.60;0.60;;;3.70;99.90;;;;;;5259984;28;20020;-73
2022/01/10 01:47:40;;;;;;;0.70;0.70;;;3.70;99.90;;;;;;5255960;28;20032;-72
2022/01/10 01:50:14;;;;;;;0.75;0.75;;;3.70;99.90;;;;;;5254495;28;20028;-72
2022/01/10 01:52:47;;;;;;;0.75;0.75;;;3.80;99.90;;;;;;5273115;28;20425;-73
2022/01/10 01:55:19;;;;;;;0.57;0.57;;;3.80;99.90;;;;;;5257481;28;20035;-72
2022/01/10 01:57:55;;;;;;;0.88;0.88;;;3.80;99.90;;;;;;5244996;28;20036;-74
2022/01/10 02:00:32;;;;;;;0.57;0.57;;;3.80;99.90;;;;;;5246579;28;20488;-72
2022/01/10 02:03:06;;;;;;;0.70;0.70;;;3.90;99.90;;;;;;5263913;28;20026;-72
2022/01/10 02:05:41;;;;;;;0.50;0.50;;;3.90;99.90;;;;;;5258421;28;20043;-72
2022/01/10 02:08:12;;;;;;;0.60;0.60;;;3.90;99.90;;;;;;5269415;28;20476;-73
2022/01/10 02:10:46;;;;;;;0.50;0.50;;;3.90;99.90;;;;;;5258750;28;20028;-72
2022/01/10 02:13:17;;;;;;;0.70;0.70;;;3.80;99.90;;;;;;5254019;28;20027;-72
2022/01/10 02:16:03;;;;;;;1.02;1.02;;;3.80;99.90;;;;;;5265388;28;20099;-72
2022/01/10 02:18:34;;;;;;;0.50;0.50;;;3.80;99.90;;;;;;5254685;28;20047;-72
2022/01/10 02:21:09;;;;;;;0.68;0.68;;;3.80;99.90;;;;;;5262596;28;20058;-72
2022/01/10 02:23:40;;;;;;;;;;;3.80;99.90;;;;;;5262704;28;20378;-72
2022/01/10 02:26:13;;;;;;;0.63;0.63;;;3.80;99.90;;;;;;5261038;28;19918;-74
2022/01/10 02:28:46;;;;;;;0.55;0.55;;;3.80;99.90;;;;;;5260737;28;20043;-72
2022/01/10 02:31:20;;;;;;;0.60;0.60;;;3.90;99.90;;;;;;5255081;28;20032;-72
2022/01/10 02:33:57;;;;;;;0.50;0.50;;;3.90;99.90;;;;;;5242693;28;20060;-73
2022/01/10 02:36:36;;;;;;;0.77;0.77;;;3.90;99.90;;;;;;5240238;28;20111;-72
2022/01/10 02:39:11;;;;;;;0.80;0.80;;;3.90;99.90;;;;;;5264383;28;20024;-73
2022/01/10 02:41:47;;;;;;;1.25;1.23;;;4.00;99.90;;;;;;5252797;28;20191;-73
2022/01/10 02:44:22;;;;;;;0.60;0.60;;;4.00;99.90;;;;;;5260109;28;20024;-73
2022/01/10 02:46:52;;;;;;;1.38;1.10;;;3.90;99.90;;;;;;5241057;28;20040;-73
2022/01/10 02:49:26;;;;;;;1.27;1.27;;;3.90;99.90;;;;;;5242646;28;20025;-73
2022/01/10 02:51:58;;;;;;;1.10;1.10;;;3.90;99.90;;;;;;5241275;28;20530;-72
2022/01/10 02:54:37;;;;;;;1.52;1.52;;;4.00;99.90;;;;;;5244290;28;20040;-72
2022/01/10 02:57:10;;;;;;;0.77;0.77;;;4.00;99.90;;;;;;5242421;28;20060;-73
2022/01/10 02:59:44;;;;;;;0.68;0.68;;;3.90;99.90;;;;;;5224202;28;20047;-73
2022/01/10 03:02:23;;;;;;;0.70;0.70;;;3.90;99.90;;;;;;5242783;28;20430;-72
2022/01/10 03:04:54;;;;;;;0.60;0.60;;;3.90;99.90;;;;;;5248099;27;20111;-72
2022/01/10 03:07:29;;;;;;;0.80;0.80;;;3.90;99.90;;;;;;5274515;28;20071;-72
2022/01/10 03:10:06;;;;;;;0.88;0.88;;;3.90;99.90;;;;;;5262296;28;20032;-72
2022/01/10 03:12:37;;;;;;;0.80;0.80;;;3.90;99.90;;;;;;5266211;28;20031;-73
2022/01/10 03:15:12;;;;;;;0.82;0.82;;;3.90;99.90;;;;;;5260866;28;20099;-73
2022/01/10 03:17:43;;;;;;;1.02;1.02;;;3.90;99.90;;;;;;5262041;28;20040;-73
2022/01/10 03:20:19;;;;;;;1.25;1.15;;;3.90;99.90;;;;;;5261332;28;20066;-72
2022/01/10 03:22:53;;;;;;;0.63;0.63;;;3.80;99.90;;;;;;5255442;28;20504;-74
2022/01/10 03:25:24;;;;;;;0.75;0.75;;;3.90;99.90;;;;;;5255356;28;20028;-73
2022/01/10 03:28:00;;;;;;;0.50;0.50;;;3.90;99.90;;;;;;5261293;28;20047;-72
2022/01/10 03:30:31;;;;;;;0.40;0.40;;;3.90;99.90;;;;;;5260772;28;20023;-72
2022/01/10 03:33:04;;;;;;;0.57;0.57;;;3.80;99.90;;;;;;5292847;27;20024;-73
2022/01/10 03:35:38;;;;;;;0.60;0.60;;;3.90;99.90;;;;;;5258912;28;20059;-73
2022/01/10 03:38:11;;;;;;;0.40;0.40;;;3.90;99.90;;;;;;5260388;28;20098;-73
2022/01/10 03:40:42;;;;;;;0.40;0.40;;;3.90;99.90;;;;;;5261459;28;20465;-73
2022/01/10 03:43:16;;;;;;;0.52;0.52;;;3.90;99.90;;;;;;5260643;28;20048;-73
2022/01/10 03:45:52;;;;;;;0.68;0.68;;;3.80;99.90;;;;;;5276518;28;20028;-73
2022/01/10 03:48:23;;;;;;;0.60;0.60;;;3.80;99.90;;;;;;5261299;28;20028;-73
2022/01/10 03:51:02;;;;;;;0.70;0.70;;;3.80;99.90;;;;;;5260799;28;20046;-74
2022/01/10 03:53:38;;;;;;;0.70;0.70;;;3.80;99.90;;;;;;5257351;28;20116;-73
2022/01/10 03:56:12;;;;;;;0.90;0.90;;;3.80;99.90;;;;;;5275587;28;20036;-73
2022/01/10 03:58:45;;;;;;;0.65;0.65;;;3.80;99.90;;;;;;5259745;28;20036;-74
2022/01/10 04:01:21;;;;;;;0.80;0.80;;;3.70;99.90;;;;;;5259933;28;20028;-73
2022/01/10 04:03:57;;;;;;;0.63;0.63;;;3.80;99.90;;;;;;5259007;28;20043;-73
2022/01/10 04:06:37;;;;;;;0.57;0.57;;;3.70;99.90;;;;;;5246978;27;20085;-72
2022/01/10 04:09:10;;;;;;;0.50;0.50;;;3.70;99.90;;;;;;5259091;28;20032;-72
2022/01/10 04:11:45;;;;;;;0.63;0.63;;;3.70;99.90;;;;;;5258167;28;20040;-74
2022/01/10 04:14:22;;;;;;;0.50;0.50;;;3.70;99.90;;;;;;5258089;28;20028;-71
2022/01/10 04:16:55;;;;;;;0.57;0.57;;;3.70;99.90;;;;;;5243730;28;20132;-73
2022/01/10 04:19:28;;;;;;;0.52;0.52;;;3.70;99.90;;;;;;5260277;28;20051;-73
2022/01/10 04:22:04;;;;;;;1.13;1.13;;;3.70;99.90;;;;;;5260924;28;20322;-73
2022/01/10 04:24:35;;;;;;;1.20;1.20;;;3.60;99.90;;;;;;5275464;28;20055;-72
2022/01/10 04:27:06;;;;;;;0.52;0.52;;;3.40;99.90;;;;;;5275936;28;20024;-72
2022/01/10 04:29:39;;;;;;;1.35;1.35;;;3.10;99.90;;;;;;5275566;28;20028;-72
2022/01/10 04:32:12;;;;;;;0.60;0.60;;;3.00;99.90;;;;;;5231895;28;20031;-74
2022/01/10 04:34:51;;;;;;;0.57;0.57;;;3.00;99.90;;;;;;5241609;28;20469;-72
2022/01/10 04:37:24;;;;;;;0.80;0.80;;;2.90;99.90;;;;;;5245790;28;20035;-74
2022/01/10 04:39:55;;;;;;;0.50;0.50;;;2.90;99.90;;;;;;5258399;28;20052;-72
2022/01/10 04:42:32;;;;;;;0.50;0.50;;;2.90;99.90;;;;;;5258206;28;20024;-72
2022/01/10 04:45:09;;;;;;;0.52;0.52;;;2.90;99.90;;;;;;5258047;28;20024;-72
2022/01/10 04:47:40;;;;;;;0.47;0.47;;;2.80;99.90;;;;;;5258126;28;20521;-72
2022/01/10 04:52:54;;;;;;;0.60;0.60;;;2.70;99.90;;;;;;5254594;28;20024;-72
2022/01/10 04:55:29;;;;;;;0.82;0.82;;;2.60;99.90;;;;;;5256089;28;20047;-73
2022/01/10 04:58:02;;;;;;;0.77;0.77;;;2.50;99.90;;;;;;5259297;28;20361;-73
2022/01/10 05:00:36;;;;;;;0.70;0.70;;;2.40;99.90;;;;;;5257973;28;20205;-73
2022/01/10 05:03:12;;;;;;;0.70;0.70;;;2.30;99.90;;;;;;5259642;28;20024;-73
2022/01/10 05:05:48;;;;;;;0.88;0.88;;;2.30;99.90;;;;;;5261456;28;20142;-73
2022/01/10 05:08:25;;;;;;;0.40;0.40;;;2.20;99.90;;;;;;5260011;28;20122;-72
2022/01/10 05:11:03;;;;;;;0.60;0.60;;;2.30;99.90;;;;;;5261034;28;20031;-73
2022/01/10 05:13:40;;;;;;;0.75;0.75;;;2.20;99.90;;;;;;5288030;27;20114;-73
2022/01/10 05:16:12;;;;;;;0.50;0.50;;;2.20;99.90;;;;;;5273947;28;20341;-73
2022/01/10 05:18:46;;;;;;;0.40;0.40;;;2.20;99.90;;;;;;5262473;28;20028;-73
2022/01/10 05:21:17;;;;;;;0.70;0.70;;;2.10;99.90;;;;;;5255997;28;20035;-73
2022/01/10 05:23:53;;;;;;;0.50;0.50;;;2.10;99.90;;;;;;5262066;28;20428;-72
2022/01/10 05:26:27;;;;;;;0.50;0.50;;;2.10;99.90;;;;;;5263602;28;20055;-72
2022/01/10 05:29:01;;;;;;;;;;;2.10;99.90;;;;;;5262654;28;20030;-72
2022/01/10 05:31:34;;;;;;;0.50;0.50;;;2.10;99.90;;;;;;5263054;28;20002;-73
2022/01/10 05:34:05;;;;;;;0.55;0.55;;;2.10;99.90;;;;;;5278777;28;20032;-72
2022/01/10 05:36:38;;;;;;;0.88;0.88;;;2.10;99.90;;;;;;5263556;28;20384;-72
2022/01/10 05:39:09;;;;;;;0.73;0.73;;;2.10;99.90;;;;;;5261768;28;20043;-73
2022/01/10 05:41:41;;;;;;;0.52;0.52;;;2.10;99.90;;;;;;5261724;28;20032;-72
2022/01/10 05:44:15;;;;;;;0.65;0.65;;;2.10;99.90;;;;;;5262910;28;20572;-72
2022/01/10 05:46:47;;;;;;;2.00;1.80;;;2.20;99.90;;;;;;5248618;28;20706;-72
2022/01/10 05:49:25;;;;;;;0.47;0.47;;;2.20;99.90;;;;;;5240209;28;20052;-73
2022/01/10 05:51:56;;;;;;;0.40;0.40;;;2.20;99.90;;;;;;5240731;28;20037;-72
2022/01/10 05:54:27;;;;;;;0.50;0.50;;;2.20;99.90;;;;;;5223613;28;20556;-73
2022/01/10 05:56:58;;;;;;;0.60;0.60;;;2.10;99.90;;;;;;5240718;28;20095;-72
2022/01/10 05:59:36;;;;;;;0.40;0.40;;;2.10;99.90;;;;;;5240711;28;20036;-72
2022/01/10 06:02:06;;;;;;;0.50;0.50;;;2.10;99.90;;;;;;5241652;28;20029;-73
2022/01/10 06:04:37;;;;;;;0.95;0.95;;;2.10;99.90;;;;;;5230489;28;20421;-73
2022/01/10 06:07:13;;;;;;;1.50;1.40;;;2.20;99.90;;;;;;5232104;28;20071;-73
2022/01/10 06:09:46;;;;;;;0.40;0.40;;;2.20;99.90;;;;;;5218878;28;20044;-73
2022/01/10 06:12:17;;;;;;;1.02;1.02;;;2.20;99.90;;;;;;5215471;28;20036;-73
2022/01/10 06:14:48;;;;;;;0.47;0.47;;;2.20;99.90;;;;;;5219727;28;20404;-73
2022/01/10 06:17:19;;;;;;;0.50;0.50;;;2.20;99.90;;;;;;5219715;28;20040;-73
2022/01/10 06:19:52;;;;;;;0.60;0.60;;;2.20;99.90;;;;;;5220588;28;20048;-74
2022/01/10 06:22:25;;;;;;;0.43;0.43;;;2.20;99.90;;;;;;5204243;28;20037;-73
2022/01/10 06:24:59;;;;;;;1.67;1.58;;;2.20;99.90;;;;;;5227391;28;20027;-73
2022/01/10 06:27:35;;;;;;;0.70;0.70;;;2.20;99.90;;;;;;5205356;28;20029;-73
2022/01/10 06:30:15;;;;;;;0.68;0.68;;;2.30;99.90;;;;;;5205510;28;20098;-73
2022/01/10 06:32:46;;;;;;;1.10;1.10;;;2.30;99.90;;;;;;5221700;28;20033;-75
2022/01/10 06:35:20;;;;;;;0.52;0.52;;;2.30;99.90;;;;;;5214520;28;20040;-74
2022/01/10 06:37:54;;;;;;;0.60;0.60;;;2.30;99.90;;;;;;5222377;28;20037;-72
2022/01/10 06:40:26;;;;;;;1.88;1.77;;;2.40;99.90;;;;;;5225668;28;20056;-73
2022/01/10 06:42:59;;;;;;;0.77;0.77;;;2.40;99.90;;;;;;5219022;28;20328;-73
2022/01/10 06:45:32;;;;;;;0.52;0.52;;;2.40;99.90;;;;;;5231042;28;20048;-73
2022/01/10 06:48:10;;;;;;;0.77;0.77;;;2.40;99.90;;;;;;5247110;28;20198;-73
2022/01/10 06:50:46;;;;;;;0.95;0.95;;;2.50;99.90;;;;;;5254666;28;20047;-73
2022/01/10 06:53:17;;;;;;;0.40;0.40;;;2.50;99.90;;;;;;5238329;28;20043;-73
2022/01/10 06:55:48;;;;;;;0.60;0.60;;;2.60;99.90;;;;;;5262650;28;20036;-72
2022/01/10 06:58:19;;;;;;;0.50;0.50;;;2.60;99.90;;;;;;5239347;28;20048;-72
2022/01/10 07:00:50;;;;;;;0.68;0.68;;;2.60;99.90;;;;;;5264288;28;20032;-74
2022/01/10 07:03:23;;;;;;;0.65;0.65;;;2.50;99.90;;;;;;5240098;28;20047;-74
2022/01/10 07:05:54;;;;;;;0.50;0.50;;;2.50;99.90;;;;;;5230457;28;20154;-74
2022/01/10 07:08:27;;;;;;;0.40;0.40;;;2.50;99.90;;;;;;5223689;28;20231;-74
2022/01/10 07:11:06;;;;;;;0.98;0.98;;;2.50;99.90;;;;;;5240187;28;20044;-74
2022/01/10 07:13:39;;;;;;;0.68;0.68;;;2.60;99.90;;;;;;5222799;28;20120;-74
2022/01/10 07:16:17;;;;;;;0.50;0.50;;;2.60;99.90;;;;;;5229434;28;20119;-74
2022/01/10 07:18:51;;;;;;;0.40;0.40;;;2.60;99.90;;;;;;5223827;28;20354;-74
2022/01/10 07:21:24;;;;;;;1.15;1.15;;;2.60;99.90;;;;;;5241334;28;20028;-73
2022/01/10 07:23:57;;;;;;;0.60;0.60;;;2.60;99.90;;;;;;5239843;28;20055;-73
2022/01/10 07:26:28;;;;;;;0.57;0.57;;;2.60;99.90;;;;;;5234527;28;20073;-72
2022/01/10 07:29:08;;;;;;;1.65;1.55;;;2.60;99.90;;;;;;5239251;28;20044;-73
2022/01/10 07:31:44;;;;;;;0.55;0.55;;;2.60;99.90;;;;;;5239493;28;20028;-73
2022/01/10 07:34:18;;;;;;;0.82;0.82;;;2.60;99.90;;;;;;5250596;28;20043;-73
2022/01/10 07:36:54;;;;;;;1.05;1.05;;;2.70;99.90;;;;;;5244668;28;20043;-73
2022/01/10 07:39:28;;;;;;;0.50;0.50;;;2.70;99.90;;;;;;5245423;28;20054;-73
2022/01/10 07:41:59;;;;;;;0.60;0.60;;;2.70;99.90;;;;;;5245944;28;20649;-73
2022/01/10 07:44:34;;;;;;;0.43;0.43;;;2.70;99.90;;;;;;5242882;28;20101;-73
2022/01/10 07:47:05;;;;;;;0.50;0.50;;;2.70;99.90;;;;;;5262610;28;20035;-73
2022/01/10 07:49:38;;;;;;;0.68;0.68;;;2.60;99.90;;;;;;5245177;28;20207;-73
2022/01/10 07:52:10;;;;;;;0.60;0.60;;;2.50;99.90;;;;;;5264722;28;20049;-73
2022/01/10 07:54:49;;;;;;;0.70;0.70;;;2.50;99.90;;;;;;5248205;28;20051;-73
2022/01/10 07:57:22;;;;;;;0.60;0.60;;;2.40;99.90;;;;;;5262913;28;20237;-73
2022/01/10 07:59:53;;;;;;;0.40;0.40;;;2.30;99.90;;;;;;5245311;28;20020;-73
2022/01/10 08:02:29;;;;;;;0.30;0.30;;;2.30;99.90;;;;;;5262989;28;20031;-73
2022/01/10 08:05:00;;;;;;;1.20;1.20;;;2.30;99.90;;;;;;5234715;28;20345;-73
2022/01/10 08:07:31;;;;;;;0.60;0.60;;;2.30;99.90;;;;;;5228325;28;20380;-73
2022/01/10 08:10:08;;;;;;;0.52;0.52;;;2.30;99.90;;;;;;5262530;28;20105;-73
2022/01/10 08:12:40;;;;;;;0.60;0.60;;;2.30;99.90;;;;;;5261612;28;20036;-73
2022/01/10 08:15:11;;;;;;;0.50;0.50;;;2.30;99.90;;;;;;5244446;28;20027;-73
2022/01/10 08:17:42;;;;;;;0.40;0.40;;;2.30;99.90;;;;;;5259884;28;20395;-73
2022/01/10 08:20:17;;;;;;;0.40;0.40;;;2.30;99.90;;;;;;5225716;28;20111;-74
2022/01/10 08:22:48;;;;;;;0.80;0.80;;;2.30;99.90;;;;;;5261987;28;20058;-73
2022/01/10 08:25:22;;;;;;;0.57;0.57;;;2.30;99.90;;;;;;5241500;28;20032;-73
2022/01/10 08:27:55;;;;;;;0.47;0.47;;;2.20;99.90;;;;;;5210701;28;20599;-72
2022/01/10 08:30:29;;;;;;;0.60;0.60;;;2.30;99.90;;;;;;5210113;28;20024;-72
2022/01/10 08:33:05;;;;;;;0.52;0.52;;;2.30;99.90;;;;;;5244462;28;20046;-73
2022/01/10 08:35:43;;;;;;;0.35;0.35;;;2.20;99.90;;;;;;5230256;28;20516;-73
2022/01/10 08:38:18;;;;;;;0.70;0.70;;;2.20;99.90;;;;;;5228274;28;20209;-73
2022/01/10 08:40:49;;;;;;;;;;;2.20;99.90;;;;;;5228040;28;20101;-73
2022/01/10 08:43:25;;;;;;;0.73;0.73;;;2.20;99.90;;;;;;5246379;28;19919;-73
2022/01/10 08:46:01;;;;;;;0.45;0.45;;;2.20;99.90;;;;;;5252507;28;20421;-72
2022/01/10 08:48:35;;;;;;;0.50;0.50;;;2.20;99.90;;;;;;5245177;28;20032;-74
2022/01/10 08:51:07;;;;;;;3.00;1.33;;;2.30;99.90;;;;;;5245091;28;20096;-73
2022/01/10 08:53:38;;;;;;;0.68;0.68;;;2.20;99.90;;;;;;5235119;28;20044;-73
2022/01/10 08:56:11;;;;;;;0.50;0.50;;;2.20;99.90;;;;;;5222159;28;20257;-73
2022/01/10 08:58:44;;;;;;;0.82;0.82;;;2.30;99.90;;;;;;5237934;28;20032;-73
2022/01/10 09:01:19;;;;;;;0.60;0.60;;;2.30;99.90;;;;;;5204161;28;20420;-73
2022/01/10 09:03:53;;;;;;;0.40;0.40;;;2.30;99.90;;;;;;5235339;28;20370;-73
2022/01/10 09:06:27;;;;;;;0.50;0.50;;;2.30;99.90;;;;;;5261363;28;20092;-73
2022/01/10 09:09:06;;;;;;;0.50;0.50;;;2.40;99.90;;;;;;5260863;28;20043;-73
2022/01/10 09:11:43;;;;;;;0.65;0.65;;;2.30;99.90;;;;;;5261870;28;20050;-73
2022/01/10 09:14:14;;;;;;;0.60;0.60;;;2.30;99.90;;;;;;5260903;28;20293;-73
2022/01/10 09:16:47;;;;;;;0.60;0.60;;;2.30;99.90;;;;;;5259525;28;20123;-73
2022/01/10 09:19:18;;;;;;;0.40;0.40;;;2.30;99.90;;;;;;5260341;28;20028;-73
2022/01/10 09:21:49;;;;;;;0.50;0.50;;;2.30;99.90;;;;;;5291801;28;20059;-73
2022/01/10 09:24:24;;;;;;;1.08;1.08;;;2.30;99.90;;;;;;5242468;28;20040;-72
2022/01/10 09:26:56;;;;;;;1.70;1.58;;;2.30;99.90;;;;;;5260685;28;20408;-72
2022/01/10 09:29:29;;;;;;;0.50;0.50;;;2.40;99.90;;;;;;5260725;28;20144;-73
2022/01/10 09:32:00;;;;;;;0.45;0.45;;;2.30;99.90;;;;;;5266072;28;20047;-74
2022/01/10 09:34:30;;;;;;;0.60;0.60;;;2.40;99.90;;;;;;5261130;28;20545;-74
2022/01/10 09:37:04;;;;;;;0.43;0.43;;;2.40;99.90;;;;;;5261551;28;20105;-74
2022/01/10 09:39:35;;;;;;;0.70;0.70;;;2.40;99.90;;;;;;5255420;28;20036;-74
2022/01/10 09:42:06;;;;;;;0.60;0.60;;;2.40;99.90;;;;;;5259678;28;20032;-72
2022/01/10 09:44:40;;;;;;;0.40;0.40;;;2.50;99.90;;;;;;5276008;28;20040;-72
2022/01/10 09:47:17;;;;;;;0.50;0.50;;;2.50;99.90;;;;;;5260712;28;20028;-73
2022/01/10 09:49:50;;;;;;;0.40;0.40;;;2.50;99.90;;;;;;5258403;28;20234;-72
2022/01/10 09:52:27;;;;;;;0.83;0.83;;;2.50;99.90;;;;;;5260009;28;20040;-73
2022/01/10 09:54:58;;;;;;;0.93;0.93;;;2.50;99.90;;;;;;5234613;28;20039;-73
2022/01/10 09:57:38;;;;;;;0.65;0.65;;;2.50;99.90;;;;;;5261850;28;20064;-73
2022/01/10 10:00:20;;;;;;;0.75;0.75;;;2.50;99.90;;;;;;5264029;28;20198;-72
2022/01/10 10:02:54;;;;;;;1.15;1.15;;;2.50;99.90;;;;;;5263969;28;20200;-73
2022/01/10 10:05:25;;;;;;;0.75;0.75;;;2.50;99.90;;;;;;5255042;27;20058;-72
2022/01/10 10:08:03;;;;;;;0.70;0.70;;;2.50;99.90;;;;;;5269951;28;20035;-72
2022/01/10 10:10:35;;;;;;;0.45;0.45;;;2.40;99.90;;;;;;5263644;28;20105;-72
2022/01/10 10:13:06;;;;;;;0.70;0.70;;;2.40;99.90;;;;;;5265281;28;20034;-72
2022/01/10 10:15:39;;;;;;;0.70;0.70;;;2.40;99.90;;;;;;5263835;28;20047;-73
2022/01/10 10:18:12;;;;;;;1.63;1.60;;;2.40;99.90;;;;;;5264701;28;20046;-72
2022/01/10 10:20:45;;;;;;;0.47;0.47;;;2.40;99.90;;;;;;5258638;28;20031;-72
2022/01/10 10:23:18;;;;;;;0.52;0.52;;;2.30;99.90;;;;;;5260729;28;20016;-72
2022/01/10 10:25:57;;;;;;;0.45;0.45;;;2.30;99.90;;;;;;5261264;28;20031;-72
2022/01/10 10:28:28;;;;;;;0.40;0.40;;;2.40;99.90;;;;;;5265485;28;20059;-73
2022/01/10 10:31:01;;;;;;;0.55;0.55;;;2.40;99.90;;;;;;5264816;28;20106;-72
2022/01/10 10:33:32;;;;;;;0.50;0.50;;;2.50;99.90;;;;;;5247073;28;20044;-73
2022/01/10 10:36:10;;;;;;;0.57;0.57;;;2.40;99.90;;;;;;5264103;28;20066;-72
2022/01/10 10:38:44;;;;;;;0.50;0.50;;;2.40;99.90;;;;;;5267934;28;20032;-73
2022/01/10 10:41:16;;;;;;;0.63;0.63;;;2.40;99.90;;;;;;5263678;28;20448;-72
2022/01/10 10:43:51;;;;;;;0.60;0.60;;;2.40;99.90;;;;;;5266719;28;20334;-74
2022/01/10 10:46:26;;;;;;;0.50;0.50;;;2.50;99.90;;;;;;5247559;28;20278;-73
2022/01/10 10:49:04;;;;;;;0.40;0.40;;;2.50;99.90;;;;;;5262519;28;20100;-73
2022/01/10 10:51:37;;;;;;;0.90;0.90;;;2.50;99.90;;;;;;5280733;28;20040;-72
2022/01/10 10:54:13;;;;;;;0.80;0.80;;;2.50;99.90;;;;;;5277331;28;20353;-73
2022/01/10 10:56:47;;;;;;;0.65;0.65;;;2.50;99.90;;;;;;5262789;28;20303;-73
2022/01/10 10:59:18;;;;;;;0.70;0.70;;;2.50;99.90;;;;;;5261660;28;20031;-73
2022/01/10 11:01:51;;;;;;;0.50;0.50;;;2.50;99.90;;;;;;5263147;28;20046;-73
2022/01/10 11:04:29;;;;;;;0.80;0.80;;;2.50;99.90;;;;;;5256446;27;20105;-72
2022/01/10 11:07:03;;;;;;;0.50;0.50;;;2.50;99.90;;;;;;5244039;28;20032;-72
2022/01/10 11:09:37;;;;;;;0.93;0.93;;;2.40;99.90;;;;;;5261962;28;20315;-72
2022/01/10 11:12:13;;;;;;;0.70;0.70;;;2.40;99.90;;;;;;5261359;28;20037;-72
2022/01/10 11:14:47;;;;;;;2.20;1.58;;;2.40;99.90;;;;;;5259181;28;20106;-72
2022/01/10 11:17:28;;;;;;;0.40;0.40;;;2.40;99.90;;;;;;5292762;27;20044;-74
2022/01/10 11:20:20;;;;;;;0.60;0.60;;;2.40;99.90;;;;;;5280116;27;20159;-72
2022/01/10 11:23:02;;;;;;;1.65;1.55;;;2.40;99.90;;;;;;5255991;28;20035;-73
2022/01/10 11:25:39;;;;;;;2.75;2.55;;;2.40;99.90;;;;;;5259346;28;20430;-73
2022/01/10 11:28:23;;;;;;;0.68;0.68;;;2.40;99.90;;;;;;5264126;28;20032;-72
2022/01/10 11:31:06;;;;;;;0.50;0.50;;;2.50;99.90;;;;;;5242759;28;20042;-74
2022/01/10 11:33:58;;;;;;;0.77;0.77;;;2.50;99.90;;;;;;5259954;28;20035;-73
2022/01/10 11:36:32;;;;;;;0.60;0.60;;;2.50;99.90;;;;;;5257484;28;20354;-72
2022/01/10 11:39:13;;;;;;;0.60;0.60;;;2.60;99.90;;;;;;5255368;28;20020;-72
2022/01/10 11:41:44;;;;;;;0.60;0.60;;;2.60;99.90;;;;;;5260480;28;20077;-73
2022/01/10 11:44:19;;;;;;;0.50;0.50;;;2.50;99.90;;;;;;5259485;28;20094;-72
2022/01/10 11:46:52;;;;;;;0.63;0.63;;;2.50;99.90;;;;;;5259637;28;20031;-73
2022/01/10 11:49:25;;;;;;;0.55;0.55;;;2.50;99.90;;;;;;5260278;28;20043;-73
2022/01/10 11:51:56;;;;;;;0.40;0.40;;;2.50;99.90;;;;;;5260334;28;20332;-72
2022/01/10 11:54:37;;;;;;;0.40;0.40;;;2.60;99.90;;;;;;5262306;28;20118;-72
2022/01/10 11:57:17;;;;;;;0.50;0.50;;;2.60;99.90;;;;;;5261051;28;20383;-72
2022/01/10 11:59:56;;;;;;;2.25;1.30;;;2.60;99.90;;;;;;5263169;28;20031;-73
2022/01/10 12:02:29;;;;;;;0.70;0.70;;;2.60;99.90;;;;;;5235785;28;20458;-73
2022/01/10 12:05:02;;;;;;;0.52;0.52;;;2.60;99.90;;;;;;5258874;27;20531;-72
2022/01/10 12:07:33;;;;;;;0.50;0.50;;;2.60;99.90;;;;;;5268266;28;20043;-72
2022/01/10 12:10:07;;;;;;;0.60;0.60;;;2.70;99.90;;;;;;5259702;28;20048;-72
2022/01/10 12:12:42;;;;;;;0.98;0.98;;;2.70;99.90;;;;;;5267912;27;20039;-72
2022/01/10 12:15:13;;;;;;;0.55;0.55;;;2.80;99.90;;;;;;5275503;28;20122;-73
2022/01/10 12:17:52;;;;;;;1.10;1.10;;;2.80;99.90;;;;;;5259952;28;20032;-73
2022/01/10 12:20:23;;;;;;;0.70;0.70;;;2.80;99.90;;;;;;5241621;28;20106;-74
2022/01/10 12:22:56;;;;;;;1.80;1.77;;;2.70;99.90;;;;;;5259402;28;20036;-72
2022/01/10 12:25:30;;;;;;;0.75;0.75;;;2.70;99.90;;;;;;5258936;28;20051;-73
2022/01/10 12:28:04;;;;;;;0.77;0.77;;;2.80;99.90;;;;;;5275296;28;20048;-73
2022/01/10 12:30:35;;;;;;;0.93;0.93;;;2.80;99.90;;;;;;5290845;27;20047;-72
2022/01/10 12:33:12;;;;;;;0.60;0.60;;;2.90;99.90;;;;;;5257741;28;20047;-73
2022/01/10 12:35:46;;;;;;;0.50;0.50;;;2.80;99.90;;;;;;5241813;28;20130;-73
2022/01/10 12:38:23;;;;;;;0.43;0.43;;;2.90;99.90;;;;;;5253724;28;20024;-73
2022/01/10 12:40:54;;;;;;;1.63;1.63;;;2.80;99.90;;;;;;5257856;28;20577;-72
2022/01/10 12:43:27;;;;;;;0.85;0.85;;;2.80;99.90;;;;;;5256236;28;20035;-72
2022/01/10 12:46:04;;;;;;;0.55;0.55;;;2.80;99.90;;;;;;5259733;28;20055;-73
2022/01/10 12:48:43;;;;;;;0.65;0.65;;;2.80;99.90;;;;;;5265722;28;20322;-73
2022/01/10 12:51:18;;;;;;;0.40;0.40;;;2.80;99.90;;;;;;5259327;28;20165;-73
2022/01/10 12:53:51;;;;;;;;;;;2.80;99.90;;;;;;5258820;28;20054;-73
2022/01/10 12:56:28;;;;;;;1.33;1.33;;;2.80;99.90;;;;;;5261251;28;19926;-74
2022/01/10 12:58:59;;;;;;;0.80;0.80;;;2.80;99.90;;;;;;5242936;28;20507;-73
2022/01/10 13:01:33;;;;;;;0.95;0.95;;;2.80;99.90;;;;;;5256593;28;20039;-73
2022/01/10 13:04:05;;;;;;;0.60;0.60;;;2.90;99.90;;;;;;5260495;28;20101;-73
2022/01/10 13:06:43;;;;;;;0.40;0.40;;;2.90;99.90;;;;;;5210313;28;20063;-73
2022/01/10 13:09:19;;;;;;;0.60;0.60;;;2.90;99.90;;;;;;5239428;28;20111;-72
2022/01/10 13:12:01;;;;;;;0.60;0.60;;;2.90;99.90;;;;;;5237423;28;20032;-73
2022/01/10 13:14:36;;;;;;;0.60;0.60;;;2.90;99.90;;;;;;5240434;28;20447;-74
2022/01/10 13:17:08;;;;;;;0.98;0.98;;;2.90;99.90;;;;;;5238849;28;20334;-73
2022/01/10 13:19:44;;;;;;;0.65;0.65;;;2.90;99.90;;;;;;5219277;28;20313;-73
2022/01/10 13:22:16;;;;;;;0.50;0.50;;;2.90;99.90;;;;;;5238703;28;20052;-73
2022/01/10 13:24:52;;;;;;;0.80;0.80;;;3.00;99.90;;;;;;5222253;28;20044;-73
2022/01/10 13:27:33;;;;;;;0.50;0.50;;;3.00;99.90;;;;;;5239875;28;20095;-73
2022/01/10 13:30:25;;;;;;;1.08;1.08;;;2.90;99.90;;;;;;5240375;28;20071;-73
2022/01/10 13:33:04;;;;;;;0.60;0.60;;;2.90;99.90;;;;;;5244601;28;20028;-73
2022/01/10 13:35:40;;;;;;;0.73;0.73;;;2.90;99.90;;;;;;5224273;28;20032;-73
2022/01/10 13:38:17;;;;;;;0.63;0.63;;;3.00;99.90;;;;;;5244624;28;20074;-73
2022/01/10 13:40:50;;;;;;;0.75;0.75;;;3.00;99.90;;;;;;5241582;28;20032;-73
2022/01/10 13:43:30;;;;;;;1.30;1.20;;;3.00;99.90;;;;;;5244083;28;20056;-73
2022/01/10 13:46:07;;;;;;;1.20;1.20;;;3.00;99.90;;;;;;5234390;28;20067;-73